createdAt,value
2018-04-16T00:00:52.942Z,46.13
2018-04-16T00:03:19.667Z,46.47
2018-04-16T00:05:46.394Z,50.27
2018-04-16T00:08:13.147Z,48.93
2018-04-16T00:10:39.865Z,44.90
2018-04-16T00:13:06.606Z,52.57
2018-04-16T00:15:33.334Z,61.07
2018-04-16T00:18:00.066Z,50.73
2018-04-16T00:20:26.809Z,53.40
2018-04-16T00:22:53.525Z,46.10
2018-04-16T00:25:20.247Z,56.30
2018-04-16T00:27:46.973Z,50.30
2018-04-16T00:30:13.703Z,54.17
2018-04-16T00:32:46.057Z,66.60
2018-04-16T00:35:18.451Z,47.53
2018-04-16T00:37:50.861Z,58.87
2018-04-16T00:40:23.250Z,56.87
2018-04-16T00:42:55.691Z,56.10
2018-04-16T00:45:28.030Z,58.07
2018-04-16T00:48:00.532Z,54.63
2018-04-16T00:50:32.897Z,52.57
2018-04-16T00:53:05.283Z,51.70
2018-04-16T00:55:37.522Z,58.30
2018-04-16T00:58:09.934Z,53.97
2018-04-16T01:00:42.302Z,64.90
2018-04-16T01:03:14.838Z,56.83
2018-04-16T01:05:47.282Z,60.07
2018-04-16T01:08:19.812Z,60.90
2018-04-16T01:10:52.215Z,60.33
2018-04-16T01:13:24.676Z,54.30
2018-04-16T01:15:57.207Z,53.77
2018-04-16T01:18:29.638Z,57.70
2018-04-16T01:21:13.125Z,54.20
2018-04-16T01:23:57.742Z,58.43
2018-04-16T01:26:30.043Z,68.30
2018-04-16T01:29:02.422Z,62.97
2018-04-16T01:31:34.815Z,59.70
2018-04-16T01:34:07.302Z,60.13
2018-04-16T01:36:39.852Z,86.20
2018-04-16T01:39:12.266Z,56.53
2018-04-16T01:41:44.718Z,83.00
2018-04-16T01:44:17.192Z,75.33
2018-04-16T01:46:49.639Z,79.80
2018-04-16T01:49:21.998Z,63.90
2018-04-16T01:51:54.529Z,71.67
2018-04-16T01:54:26.879Z,86.17
2018-04-16T01:56:59.465Z,68.33
2018-04-16T01:59:31.956Z,87.97
2018-04-16T02:02:04.291Z,78.90
2018-04-16T02:04:36.667Z,70.87
2018-04-16T02:07:09.085Z,76.60
2018-04-16T02:09:41.588Z,76.10
2018-04-16T02:12:13.830Z,85.47
2018-04-16T02:14:46.207Z,76.40
2018-04-16T02:17:18.691Z,78.63
2018-04-16T02:19:51.127Z,85.60
2018-04-16T02:22:23.494Z,82.30
2018-04-16T02:25:09.999Z,72.40
2018-04-16T02:27:42.402Z,81.63
2018-04-16T02:30:28.800Z,81.00
2018-04-16T02:33:01.280Z,80.80
2018-04-16T02:35:44.833Z,86.77
2018-04-16T02:38:17.190Z,81.30
2018-04-16T02:40:49.681Z,87.17
2018-04-16T02:43:21.920Z,81.30
2018-04-16T02:45:54.309Z,74.70
2018-04-16T02:48:26.776Z,68.10
2018-04-16T02:50:59.268Z,70.73
2018-04-16T02:53:31.800Z,88.27
2018-04-16T02:56:04.068Z,77.13
2018-04-16T02:58:36.485Z,65.80
2018-04-16T03:01:08.858Z,71.33
2018-04-16T03:03:41.350Z,78.77
2018-04-16T03:06:14.058Z,72.53
2018-04-16T03:08:46.410Z,76.77
2018-04-16T03:11:19.108Z,73.40
2018-04-16T03:13:51.560Z,68.87
2018-04-16T03:16:24.047Z,78.07
2018-04-16T03:18:56.263Z,69.83
2018-04-16T03:21:28.633Z,73.40
2018-04-16T03:24:01.023Z,63.13
2018-04-16T03:26:33.392Z,71.23
2018-04-16T03:29:05.785Z,73.20
2018-04-16T03:31:38.319Z,67.87
2018-04-16T03:34:19.916Z,69.57
2018-04-16T03:36:52.454Z,74.53
2018-04-16T03:39:24.747Z,72.40
2018-04-16T03:41:57.301Z,74.83
2018-04-16T03:44:29.828Z,86.47
2018-04-16T03:47:02.338Z,95.43
2018-04-16T03:49:34.763Z,88.63
2018-04-16T03:52:09.159Z,104.97
2018-04-16T03:54:35.876Z,90.20
2018-04-16T03:57:02.580Z,72.07
2018-04-16T03:59:29.279Z,81.90
2018-04-16T04:01:55.995Z,102.80
2018-04-16T04:04:22.733Z,91.43
2018-04-16T04:06:49.444Z,88.90
2018-04-16T04:09:16.156Z,97.77
2018-04-16T04:11:42.865Z,80.80
2018-04-16T04:14:09.585Z,95.70
2018-04-16T04:16:36.316Z,91.93
2018-04-16T04:19:03.023Z,88.60
2018-04-16T04:21:29.727Z,93.03
2018-04-16T04:24:02.336Z,103.10
2018-04-16T04:26:34.847Z,103.67
2018-04-16T04:29:07.322Z,89.23
2018-04-16T04:31:34.027Z,91.40
2018-04-16T04:34:00.735Z,102.13
2018-04-16T04:36:27.439Z,91.97
2018-04-16T04:38:54.143Z,86.47
2018-04-16T04:41:20.887Z,89.50
2018-04-16T04:43:47.623Z,85.33
2018-04-16T04:46:14.331Z,85.53
2018-04-16T04:48:41.061Z,76.90
2018-04-16T04:51:07.810Z,91.10
2018-04-16T04:53:34.516Z,91.77
2018-04-16T04:56:01.232Z,93.30
2018-04-16T04:58:27.967Z,86.27
2018-04-16T05:00:54.680Z,95.27
2018-04-16T05:03:21.381Z,84.03
2018-04-16T05:05:48.096Z,82.50
2018-04-16T05:08:14.811Z,84.53
2018-04-16T05:10:41.550Z,84.70
2018-04-16T05:13:08.259Z,82.43
2018-04-16T05:15:34.966Z,81.90
2018-04-16T05:18:01.691Z,73.93
2018-04-16T05:20:28.436Z,71.63
2018-04-16T05:22:55.168Z,66.73
2018-04-16T05:25:21.871Z,71.47
2018-04-16T05:27:48.583Z,72.57
2018-04-16T05:30:15.291Z,70.90
2018-04-16T05:32:41.997Z,73.87
2018-04-16T05:35:08.727Z,70.00
2018-04-16T05:37:35.435Z,78.43
2018-04-16T05:40:02.147Z,75.53
2018-04-16T05:42:28.850Z,72.10
2018-04-16T05:44:55.590Z,63.97
2018-04-16T05:47:22.325Z,56.40
2018-04-16T05:49:49.037Z,58.17
2018-04-16T05:52:15.747Z,54.07
2018-04-16T05:54:42.455Z,53.17
2018-04-16T05:57:09.274Z,56.47
2018-04-16T05:59:36.011Z,53.67
2018-04-16T06:02:02.720Z,43.87
2018-04-16T06:04:29.426Z,46.73
2018-04-16T06:06:56.247Z,46.00
2018-04-16T06:09:22.958Z,43.07
2018-04-16T06:11:49.691Z,42.43
2018-04-16T06:14:16.422Z,42.30
2018-04-16T06:16:43.127Z,49.73
2018-04-16T06:19:09.869Z,51.53
2018-04-16T06:21:36.583Z,43.13
2018-04-16T06:24:03.319Z,40.60
2018-04-16T06:26:30.038Z,41.23
2018-04-16T06:28:56.747Z,47.97
2018-04-16T06:31:23.450Z,45.30
2018-04-16T06:33:50.165Z,47.23
2018-04-16T06:36:16.905Z,48.73
2018-04-16T06:38:43.614Z,45.47
2018-04-16T06:41:10.317Z,38.70
2018-04-16T06:43:37.023Z,38.97
2018-04-16T06:46:03.731Z,37.83
2018-04-16T06:48:30.467Z,37.57
2018-04-16T06:50:57.172Z,39.57
2018-04-16T06:53:23.883Z,38.50
2018-04-16T06:55:50.593Z,39.97
2018-04-16T06:58:17.311Z,41.90
2018-04-16T07:00:44.065Z,40.93
2018-04-16T07:03:10.848Z,37.53
2018-04-16T07:05:37.569Z,38.67
2018-04-16T07:08:04.301Z,39.67
2018-04-16T07:10:31.016Z,34.97
2018-04-16T07:12:57.756Z,38.60
2018-04-16T07:15:24.459Z,32.13
2018-04-16T07:17:51.169Z,32.67
2018-04-16T07:20:17.885Z,30.97
2018-04-16T07:22:44.759Z,33.73
2018-04-16T07:25:11.897Z,33.20
2018-04-16T07:27:38.612Z,39.30
2018-04-16T07:30:05.324Z,29.40
2018-04-16T07:32:32.129Z,32.63
2018-04-16T07:34:58.833Z,30.37
2018-04-16T07:37:25.567Z,32.83
2018-04-16T07:39:52.303Z,29.37
2018-04-16T07:42:19.011Z,30.67
2018-04-16T07:44:45.718Z,32.90
2018-04-16T07:47:12.435Z,32.07
2018-04-16T07:49:39.173Z,33.77
2018-04-16T07:52:05.876Z,34.00
2018-04-16T07:54:32.583Z,30.60
2018-04-16T07:56:59.302Z,31.47
2018-04-16T07:59:26.027Z,33.17
2018-04-16T08:01:52.752Z,27.67
2018-04-16T08:04:19.479Z,34.23
2018-04-16T08:06:46.210Z,30.67
2018-04-16T08:09:13.144Z,30.53
2018-04-16T08:11:39.847Z,37.13
2018-04-16T08:14:06.599Z,26.87
2018-04-16T08:16:33.307Z,27.37
2018-04-16T08:19:00.035Z,27.10
2018-04-16T08:21:26.747Z,23.93
2018-04-16T08:23:53.455Z,26.33
2018-04-16T08:26:20.186Z,21.17
2018-04-16T08:28:46.895Z,28.07
2018-04-16T08:31:13.612Z,27.20
2018-04-16T08:33:40.336Z,23.97
2018-04-16T08:36:07.043Z,28.20
2018-04-16T08:38:33.780Z,25.63
2018-04-16T08:41:00.484Z,27.87
2018-04-16T08:43:27.208Z,26.20
2018-04-16T08:45:53.924Z,26.07
2018-04-16T08:48:20.661Z,21.53
2018-04-16T08:50:47.395Z,28.07
2018-04-16T08:53:14.108Z,28.23
2018-04-16T08:55:40.821Z,31.30
2018-04-16T08:58:07.529Z,26.00
2018-04-16T09:00:34.299Z,25.53
2018-04-16T09:03:01.015Z,26.37
2018-04-16T09:05:27.719Z,24.03
2018-04-16T09:07:54.681Z,27.27
2018-04-16T09:10:21.395Z,25.30
2018-04-16T09:12:48.116Z,28.60
2018-04-16T09:15:14.850Z,25.83
2018-04-16T09:17:41.584Z,27.03
2018-04-16T09:20:08.287Z,25.90
2018-04-16T09:22:34.997Z,26.57
2018-04-16T09:25:01.727Z,23.67
2018-04-16T09:27:28.471Z,27.67
2018-04-16T09:29:55.183Z,27.53
2018-04-16T09:32:21.909Z,24.53
2018-04-16T09:34:48.622Z,22.80
2018-04-16T09:37:15.338Z,28.40
2018-04-16T09:39:42.067Z,26.27
2018-04-16T09:42:08.775Z,28.17
2018-04-16T09:44:35.480Z,23.30
2018-04-16T09:47:02.187Z,24.37
2018-04-16T09:49:28.924Z,24.77
2018-04-16T09:51:55.643Z,20.07
2018-04-16T09:54:22.351Z,24.57
2018-04-16T09:56:49.057Z,20.97
2018-04-16T09:59:15.787Z,20.83
2018-04-16T10:01:42.496Z,23.47
2018-04-16T10:04:09.207Z,23.23
2018-04-16T10:06:35.915Z,25.00
2018-04-16T10:09:02.647Z,19.67
2018-04-16T10:11:29.387Z,20.90
2018-04-16T10:13:56.091Z,18.60
2018-04-16T10:16:22.799Z,21.50
2018-04-16T10:18:49.508Z,23.00
2018-04-16T10:21:16.239Z,22.17
2018-04-16T10:23:42.954Z,19.90
2018-04-16T10:26:09.677Z,24.77
2018-04-16T10:28:36.383Z,29.23
2018-04-16T10:31:03.096Z,25.10
2018-04-16T10:33:29.851Z,24.23
2018-04-16T10:35:56.576Z,29.33
2018-04-16T10:38:23.279Z,23.63
2018-04-16T10:40:49.987Z,25.43
2018-04-16T10:43:16.699Z,21.43
2018-04-16T10:45:43.419Z,20.83
2018-04-16T10:48:10.126Z,27.43
2018-04-16T10:50:36.869Z,25.53
2018-04-16T10:53:03.578Z,24.43
2018-04-16T10:55:30.291Z,29.07
2018-04-16T10:57:57.006Z,21.33
2018-04-16T11:00:23.715Z,23.10
2018-04-16T11:02:50.448Z,23.00
2018-04-16T11:05:17.157Z,25.80
2018-04-16T11:07:43.863Z,26.20
2018-04-16T11:10:10.595Z,20.87
2018-04-16T11:12:37.299Z,23.10
2018-04-16T11:15:04.015Z,30.57
2018-04-16T11:17:30.760Z,23.30
2018-04-16T11:19:57.464Z,26.27
2018-04-16T11:22:24.175Z,26.97
2018-04-16T11:24:50.881Z,26.57
2018-04-16T11:27:17.588Z,27.13
2018-04-16T11:29:44.315Z,24.80
2018-04-16T11:32:11.026Z,25.83
2018-04-16T11:34:37.752Z,26.67
2018-04-16T11:37:04.467Z,23.20
2018-04-16T11:39:31.183Z,26.57
2018-04-16T11:41:57.940Z,20.97
2018-04-16T11:44:24.669Z,22.90
2018-04-16T11:46:51.373Z,23.40
2018-04-16T11:49:18.092Z,21.52
2018-04-16T11:51:44.799Z,22.73
2018-04-16T11:54:11.525Z,24.17
2018-04-16T11:56:38.232Z,22.03
2018-04-16T11:59:04.939Z,24.20
2018-04-16T12:01:31.650Z,21.20
2018-04-16T12:03:58.355Z,21.10
2018-04-16T12:06:25.382Z,24.77
2018-04-16T12:08:52.092Z,25.17
2018-04-16T12:11:18.800Z,23.80
2018-04-16T12:13:45.592Z,24.97
2018-04-16T12:16:12.308Z,21.33
2018-04-16T12:18:39.070Z,20.77
2018-04-16T12:21:05.800Z,25.20
2018-04-16T12:23:32.511Z,21.80
2018-04-16T12:25:59.228Z,18.43
2018-04-16T12:28:25.934Z,19.47
2018-04-16T12:30:52.667Z,17.97
2018-04-16T12:33:19.394Z,21.33
2018-04-16T12:35:46.113Z,19.67
2018-04-16T12:38:12.847Z,19.23
2018-04-16T12:40:39.565Z,23.73
2018-04-16T12:43:06.647Z,23.90
2018-04-16T12:45:33.355Z,24.50
2018-04-16T12:48:00.128Z,23.53
2018-04-16T12:50:26.807Z,26.33
2018-04-16T12:52:53.515Z,22.50
2018-04-16T12:55:20.265Z,23.50
2018-04-16T12:57:47.000Z,25.60
2018-04-16T13:00:13.706Z,25.10
2018-04-16T13:02:40.413Z,27.63
2018-04-16T13:05:07.139Z,22.13
2018-04-16T13:07:33.863Z,22.83
2018-04-16T13:10:00.578Z,22.80
2018-04-16T13:12:27.287Z,26.07
2018-04-16T13:14:53.989Z,21.73
2018-04-16T13:17:20.704Z,20.87
2018-04-16T13:19:47.447Z,22.03
2018-04-16T13:22:14.417Z,18.27
2018-04-16T13:24:41.133Z,21.90
2018-04-16T13:27:07.847Z,22.40
2018-04-16T13:29:34.563Z,23.27
2018-04-16T13:32:01.583Z,20.40
2018-04-16T13:34:28.291Z,23.53
2018-04-16T13:36:55.006Z,22.33
2018-04-16T13:39:21.712Z,21.53
2018-04-16T13:41:48.413Z,18.50
2018-04-16T13:44:15.147Z,21.30
2018-04-16T13:46:41.848Z,24.77
2018-04-16T13:49:08.564Z,27.37
2018-04-16T13:51:35.275Z,21.73
2018-04-16T13:54:02.008Z,20.27
2018-04-16T13:56:28.744Z,19.67
2018-04-16T13:58:55.450Z,21.47
2018-04-16T14:01:22.156Z,25.00
2018-04-16T14:03:48.872Z,20.17
2018-04-16T14:06:15.575Z,23.87
2018-04-16T14:08:42.307Z,26.10
2018-04-16T14:11:09.023Z,49.20
2018-04-16T14:13:35.731Z,27.03
2018-04-16T14:16:02.437Z,28.67
2018-04-16T14:18:29.145Z,29.63
2018-04-16T14:20:55.888Z,24.80
2018-04-16T14:23:22.603Z,25.83
2018-04-16T14:25:49.316Z,27.50
2018-04-16T14:28:16.031Z,24.13
2018-04-16T14:30:42.828Z,41.37
2018-04-16T14:33:10.212Z,22.90
2018-04-16T14:35:36.940Z,24.37
2018-04-16T14:38:03.658Z,26.43
2018-04-16T14:40:30.405Z,22.30
2018-04-16T14:42:57.144Z,23.43
2018-04-16T14:45:23.878Z,19.23
2018-04-16T14:47:50.592Z,22.33
2018-04-16T14:50:17.299Z,23.17
2018-04-16T14:52:44.007Z,24.20
2018-04-16T14:55:10.709Z,18.47
2018-04-16T14:57:37.446Z,20.53
2018-04-16T15:00:04.152Z,17.40
2018-04-16T15:02:31.068Z,20.63
2018-04-16T15:04:57.779Z,18.30
2018-04-16T15:07:24.476Z,17.37
2018-04-16T15:09:51.206Z,24.43
2018-04-16T15:12:17.914Z,18.07
2018-04-16T15:14:44.616Z,16.57
2018-04-16T15:17:11.319Z,20.73
2018-04-16T15:19:38.037Z,21.03
2018-04-16T15:22:04.775Z,18.20
2018-04-16T15:24:31.482Z,16.40
2018-04-16T15:26:58.247Z,28.30
2018-04-16T15:29:24.966Z,20.03
2018-04-16T15:31:51.748Z,20.47
2018-04-16T15:34:18.479Z,17.53
2018-04-16T15:36:45.190Z,18.27
2018-04-16T15:39:11.906Z,25.93
2018-04-16T15:41:38.611Z,15.27
2018-04-16T15:44:05.319Z,20.23
2018-04-16T15:46:32.045Z,18.77
2018-04-16T15:48:58.748Z,21.17
2018-04-16T15:51:25.455Z,15.87
2018-04-16T15:53:52.175Z,18.23
2018-04-16T15:56:18.878Z,23.37
2018-04-16T15:58:45.622Z,16.63
2018-04-16T16:01:12.368Z,14.77
2018-04-16T16:03:39.072Z,26.27
2018-04-16T16:06:05.779Z,17.63
2018-04-16T16:08:32.476Z,18.70
2018-04-16T16:10:59.208Z,15.63
2018-04-16T16:13:25.909Z,16.80
2018-04-16T16:15:52.618Z,14.03
2018-04-16T16:18:19.315Z,17.23
2018-04-16T16:20:46.052Z,16.30
2018-04-16T16:23:12.783Z,11.43
2018-04-16T16:25:39.494Z,14.27
2018-04-16T16:28:06.187Z,18.57
2018-04-16T16:30:32.890Z,23.63
2018-04-16T16:32:59.595Z,15.90
2018-04-16T16:35:26.323Z,16.00
2018-04-16T16:37:53.099Z,15.53
2018-04-16T16:40:19.889Z,18.63
2018-04-16T16:42:47.552Z,17.83
2018-04-16T16:45:14.318Z,21.40
2018-04-16T16:47:47.569Z,15.33
2018-04-16T16:50:17.138Z,15.30
2018-04-16T16:52:43.900Z,16.27
2018-04-16T16:55:10.609Z,16.80
2018-04-16T16:57:37.324Z,17.67
2018-04-16T17:00:04.063Z,14.17
2018-04-16T17:02:30.780Z,19.60
2018-04-16T17:04:57.486Z,16.40
2018-04-16T17:07:24.190Z,16.93
2018-04-16T17:09:50.903Z,15.50
2018-04-16T17:12:17.644Z,14.63
2018-04-16T17:14:44.523Z,16.93
2018-04-16T17:17:11.236Z,14.63
2018-04-16T17:19:37.948Z,14.80
2018-04-16T17:22:04.673Z,14.07
2018-04-16T17:24:32.417Z,14.80
2018-04-16T17:26:59.123Z,17.80
2018-04-16T17:29:25.889Z,13.67
2018-04-16T17:31:52.584Z,13.33
2018-04-16T17:34:19.300Z,11.50
2018-04-16T17:36:46.034Z,13.60
2018-04-16T17:39:12.740Z,12.13
2018-04-16T17:41:39.456Z,10.60
2018-04-16T17:44:06.163Z,9.77
2018-04-16T17:46:32.863Z,11.63
2018-04-16T17:48:59.567Z,9.73
2018-04-16T17:51:26.268Z,11.43
2018-04-16T17:53:52.977Z,12.87
2018-04-16T17:56:19.688Z,9.57
2018-04-16T17:58:46.412Z,9.50
2018-04-16T18:01:13.123Z,10.33
2018-04-16T18:03:39.836Z,13.20
2018-04-16T18:06:06.560Z,11.00
2018-04-16T18:08:33.268Z,10.07
2018-04-16T18:10:59.980Z,14.67
2018-04-16T18:13:26.707Z,10.80
2018-04-16T18:15:53.420Z,12.43
2018-04-16T18:18:20.127Z,12.10
2018-04-16T18:20:46.823Z,17.60
2018-04-16T18:23:13.523Z,11.10
2018-04-16T18:25:40.253Z,7.90
2018-04-16T18:28:06.964Z,10.30
2018-04-16T18:30:34.621Z,10.20
2018-04-16T18:33:02.209Z,12.97
2018-04-16T18:35:29.007Z,11.03
2018-04-16T18:37:55.727Z,7.83
2018-04-16T18:40:22.427Z,11.80
2018-04-16T18:42:49.121Z,8.17
2018-04-16T18:45:15.832Z,10.57
2018-04-16T18:47:42.527Z,9.87
2018-04-16T18:50:09.256Z,18.87
2018-04-16T18:52:35.961Z,12.27
2018-04-16T18:55:02.668Z,11.17
2018-04-16T18:57:29.373Z,8.57
2018-04-16T18:59:56.083Z,10.40
2018-04-16T19:02:22.810Z,9.07
2018-04-16T19:04:49.511Z,14.87
2018-04-16T19:07:16.204Z,11.50
2018-04-16T19:09:42.944Z,12.80
2018-04-16T19:12:09.919Z,9.23
2018-04-16T19:14:36.641Z,7.23
2018-04-16T19:17:03.339Z,8.30
2018-04-16T19:19:30.035Z,9.30
2018-04-16T19:21:56.731Z,7.93
2018-04-16T19:24:23.460Z,11.77
2018-04-16T19:26:55.766Z,7.60
2018-04-16T19:29:22.465Z,9.83
2018-04-16T19:31:49.164Z,8.17
2018-04-16T19:34:21.700Z,9.37
2018-04-16T19:36:48.480Z,7.83
2018-04-16T19:39:15.175Z,9.57
2018-04-16T19:41:47.564Z,7.80
2018-04-16T19:44:14.259Z,10.20
2018-04-16T19:46:40.967Z,12.63
2018-04-16T19:49:13.378Z,8.50
2018-04-16T19:51:40.080Z,9.10
2018-04-16T19:54:06.830Z,8.97
2018-04-16T19:56:39.167Z,10.50
2018-04-16T19:59:05.884Z,10.03
2018-04-16T20:01:32.599Z,10.93
2018-04-16T20:04:01.036Z,8.50
2018-04-16T20:06:27.735Z,8.23
2018-04-16T20:08:54.439Z,9.67
2018-04-16T20:11:21.135Z,8.93
2018-04-16T20:13:47.843Z,10.70
2018-04-16T20:16:14.567Z,9.57
2018-04-16T20:18:41.264Z,9.57
2018-04-16T20:21:07.963Z,7.87
2018-04-16T20:23:34.669Z,7.97
2018-04-16T20:26:01.376Z,7.67
2018-04-16T20:28:28.092Z,9.37
2018-04-16T20:30:54.798Z,10.77
2018-04-16T20:33:21.498Z,8.00
2018-04-16T20:35:48.203Z,8.47
2018-04-16T20:38:14.899Z,7.50
2018-04-16T20:40:41.616Z,9.73
2018-04-16T20:43:08.307Z,9.23
2018-04-16T20:45:35.011Z,17.77
2018-04-16T20:48:01.715Z,11.23
2018-04-16T20:50:28.412Z,7.03
2018-04-16T20:52:55.135Z,9.47
2018-04-16T20:55:21.843Z,13.90
2018-04-16T20:57:49.199Z,9.60
2018-04-16T21:00:15.900Z,13.80
2018-04-16T21:02:42.616Z,9.83
2018-04-16T21:05:09.555Z,12.57
2018-04-16T21:07:36.232Z,10.17
2018-04-16T21:10:02.916Z,12.57
2018-04-16T21:12:29.614Z,10.40
2018-04-16T21:14:56.304Z,8.70
2018-04-16T21:17:23.026Z,8.57
2018-04-16T21:19:49.710Z,9.30
2018-04-16T21:22:16.392Z,11.67
2018-04-16T21:24:43.075Z,10.83
2018-04-16T21:27:09.770Z,8.37
2018-04-16T21:29:43.448Z,7.53
2018-04-16T21:32:10.170Z,12.70
2018-04-16T21:34:37.031Z,9.10
2018-04-16T21:37:04.141Z,10.00
2018-04-16T21:39:31.118Z,12.20
2018-04-16T21:41:58.076Z,9.00
2018-04-16T21:44:24.767Z,8.63
2018-04-16T21:46:51.443Z,8.10
2018-04-16T21:49:18.134Z,8.03
2018-04-16T21:51:44.826Z,12.30
2018-04-16T21:54:11.531Z,9.47
2018-04-16T21:56:38.212Z,12.67
2018-04-16T21:59:04.884Z,10.10
2018-04-16T22:01:31.565Z,12.57
2018-04-16T22:03:58.260Z,8.57
2018-04-16T22:06:24.969Z,12.73
2018-04-16T22:08:51.669Z,9.47
2018-04-16T22:11:18.347Z,13.07
2018-04-16T22:13:45.023Z,13.63
2018-04-16T22:16:11.699Z,7.87
2018-04-16T22:18:38.409Z,8.93
2018-04-16T22:21:05.132Z,8.93
2018-04-16T22:23:31.792Z,7.00
2018-04-16T22:25:58.459Z,8.60
2018-04-16T22:28:25.194Z,11.67
2018-04-16T22:30:51.904Z,7.93
2018-04-16T22:33:18.622Z,13.40
2018-04-16T22:35:45.317Z,7.73
2018-04-16T22:38:12.016Z,8.53
2018-04-16T22:40:38.747Z,9.33
2018-04-16T22:43:07.415Z,10.47
2018-04-16T22:45:34.151Z,9.10
2018-04-16T22:48:00.859Z,12.17
2018-04-16T22:50:27.568Z,7.60
2018-04-16T22:52:54.300Z,7.67
2018-04-16T22:55:21.060Z,11.77
2018-04-16T22:57:47.763Z,9.50
2018-04-16T23:00:14.491Z,7.87
2018-04-16T23:02:41.255Z,10.13
2018-04-16T23:05:07.951Z,8.80
2018-04-16T23:07:34.672Z,8.37
2018-04-16T23:10:01.367Z,9.50
2018-04-16T23:12:29.365Z,11.00
2018-04-16T23:14:56.076Z,11.97
2018-04-16T23:17:22.771Z,7.00
2018-04-16T23:19:49.493Z,7.60
2018-04-16T23:22:16.196Z,8.80
2018-04-16T23:24:42.887Z,6.70
2018-04-16T23:27:09.621Z,8.57
2018-04-16T23:29:36.316Z,17.10
2018-04-16T23:32:03.055Z,9.10
2018-04-16T23:34:29.764Z,10.23
2018-04-16T23:36:56.464Z,9.63
2018-04-16T23:39:23.178Z,12.93
2018-04-16T23:41:49.887Z,11.03
2018-04-16T23:44:16.607Z,13.40
2018-04-16T23:46:43.303Z,9.40
2018-04-16T23:49:10.004Z,14.80
2018-04-16T23:51:36.710Z,8.90
2018-04-16T23:54:03.432Z,13.50
2018-04-16T23:56:30.162Z,8.17
2018-04-16T23:58:56.859Z,8.70
